createdAt,value
2023-02-02T00:02:01.828Z,95.50
2023-02-02T00:04:31.274Z,95.64
2023-02-02T00:06:58.576Z,95.67
2023-02-02T00:09:29.092Z,95.19
2023-02-02T00:11:56.561Z,95.58
2023-02-02T00:14:23.337Z,95.67
2023-02-02T00:16:52.315Z,95.50
2023-02-02T00:19:26.282Z,95.47
2023-02-02T00:21:54.168Z,95.59
2023-02-02T00:24:21.750Z,95.61
2023-02-02T00:26:53.718Z,95.76
2023-02-02T00:29:23.126Z,95.68
2023-02-02T00:31:49.935Z,95.45
2023-02-02T00:34:17.360Z,95.47
2023-02-02T00:36:44.848Z,95.74
2023-02-02T00:39:15.263Z,95.94
2023-02-02T00:41:41.745Z,95.86
2023-02-02T00:44:26.764Z,95.88
2023-02-02T00:46:53.088Z,96.10
2023-02-02T00:49:19.608Z,95.72
2023-02-02T00:51:47.062Z,95.82
2023-02-02T00:54:14.379Z,96.04
2023-02-02T00:56:41.420Z,96.04
2023-02-02T00:59:07.804Z,95.82
2023-02-02T01:01:34.197Z,96.08
2023-02-02T01:04:01.696Z,95.88
2023-02-02T01:06:29.225Z,95.95
2023-02-02T01:08:55.692Z,96.08
2023-02-02T01:11:22.153Z,96.07
2023-02-02T01:13:48.523Z,96.24
2023-02-02T01:16:15.880Z,96.15
2023-02-02T01:18:42.483Z,96.12
2023-02-02T01:21:11.705Z,96.14
2023-02-02T01:23:39.045Z,96.13
2023-02-02T01:26:10.777Z,96.09
2023-02-02T01:28:37.525Z,96.14
2023-02-02T01:31:09.981Z,95.90
2023-02-02T01:33:36.620Z,95.69
2023-02-02T01:36:07.536Z,95.74
2023-02-02T01:38:34.710Z,95.53
2023-02-02T01:41:02.025Z,95.53
2023-02-02T01:43:46.521Z,95.31
2023-02-02T01:46:15.486Z,95.24
2023-02-02T01:48:45.785Z,95.10
2023-02-02T01:51:16.953Z,95.07
2023-02-02T01:53:46.029Z,95.58
2023-02-02T01:56:17.389Z,95.48
2023-02-02T01:58:45.322Z,95.56
2023-02-02T02:01:12.462Z,95.72
2023-02-02T02:03:38.945Z,95.96
2023-02-02T02:06:11.702Z,95.85
2023-02-02T02:08:47.456Z,95.69
2023-02-02T02:11:14.331Z,95.83
2023-02-02T02:13:59.960Z,95.74
2023-02-02T02:16:41.688Z,95.80
2023-02-02T02:20:04.612Z,95.97
2023-02-02T02:23:08.408Z,96.05
2023-02-02T02:26:24.015Z,96.09
2023-02-02T02:29:12.204Z,96.00
2023-02-02T02:32:06.681Z,96.38
2023-02-02T02:34:43.227Z,96.44
2023-02-02T02:37:17.441Z,96.29
2023-02-02T02:39:57.980Z,96.54
2023-02-02T02:42:28.508Z,96.62
2023-02-02T02:45:02.716Z,96.15
2023-02-02T02:47:31.264Z,96.69
2023-02-02T02:50:06.172Z,96.15
2023-02-02T02:52:34.682Z,96.63
2023-02-02T02:55:03.213Z,96.53
2023-02-02T02:58:07.983Z,96.42
2023-02-02T03:00:44.850Z,96.64
2023-02-02T03:03:19.596Z,96.68
2023-02-02T03:06:15.905Z,96.49
2023-02-02T03:08:55.762Z,96.79
2023-02-02T03:11:23.217Z,96.54
2023-02-02T03:13:49.758Z,96.65
2023-02-02T03:16:17.476Z,96.67
2023-02-02T03:18:44.128Z,96.32
2023-02-02T03:21:10.695Z,96.15
2023-02-02T03:23:37.098Z,96.43
2023-02-02T03:26:03.468Z,96.40
2023-02-02T03:28:30.917Z,95.89
2023-02-02T03:31:01.171Z,96.38
2023-02-02T03:33:28.042Z,96.20
2023-02-02T03:35:55.502Z,96.11
2023-02-02T03:38:21.887Z,96.05
2023-02-02T03:40:48.375Z,96.31
2023-02-02T03:43:20.552Z,96.43
2023-02-02T03:45:47.047Z,96.22
2023-02-02T03:48:13.451Z,96.18
2023-02-02T03:50:39.803Z,96.13
2023-02-02T03:53:06.187Z,96.08
2023-02-02T03:55:32.582Z,96.23
2023-02-02T03:57:58.970Z,95.92
2023-02-02T04:00:25.338Z,96.13
2023-02-02T04:02:51.781Z,95.79
2023-02-02T04:05:18.453Z,95.56
2023-02-02T04:07:44.848Z,95.75
2023-02-02T04:10:11.640Z,95.61
2023-02-02T04:12:37.992Z,95.47
2023-02-02T04:15:04.965Z,95.59
2023-02-02T04:17:31.387Z,95.73
2023-02-02T04:19:58.486Z,95.50
2023-02-02T04:22:26.047Z,95.32
2023-02-02T04:24:52.572Z,95.45
2023-02-02T04:27:19.008Z,95.40
2023-02-02T04:29:45.431Z,95.05
2023-02-02T04:32:11.830Z,95.19
2023-02-02T04:34:38.620Z,94.96
2023-02-02T04:37:05.053Z,94.89
2023-02-02T04:39:31.471Z,94.82
2023-02-02T04:41:59.930Z,95.11
2023-02-02T04:44:26.460Z,94.58
2023-02-02T04:46:56.028Z,94.93
2023-02-02T04:49:24.470Z,94.81
2023-02-02T04:51:50.879Z,94.80
2023-02-02T04:54:17.420Z,94.80
2023-02-02T04:56:43.898Z,94.77
2023-02-02T04:59:10.263Z,94.51
2023-02-02T05:01:36.646Z,94.59
2023-02-02T05:04:03.194Z,94.79
2023-02-02T05:06:29.562Z,94.67
2023-02-02T05:08:55.937Z,94.58
2023-02-02T05:11:23.916Z,94.35
2023-02-02T05:13:53.085Z,94.78
2023-02-02T05:16:20.409Z,94.23
2023-02-02T05:18:55.284Z,94.32
2023-02-02T05:21:22.006Z,94.59
2023-02-02T05:23:48.652Z,94.60
2023-02-02T05:26:19.430Z,94.65
2023-02-02T05:28:45.959Z,94.48
2023-02-02T05:31:12.452Z,94.76
2023-02-02T05:33:38.892Z,94.50
2023-02-02T05:36:07.091Z,94.75
2023-02-02T05:38:33.666Z,94.71
2023-02-02T05:41:00.396Z,94.66
2023-02-02T05:43:28.851Z,94.35
2023-02-02T05:45:55.248Z,94.74
2023-02-02T05:48:21.737Z,94.75
2023-02-02T05:50:56.842Z,94.68
2023-02-02T05:53:23.605Z,94.54
2023-02-02T05:55:49.981Z,94.80
2023-02-02T05:58:16.346Z,94.90
2023-02-02T06:00:42.709Z,94.77
2023-02-02T06:03:09.328Z,94.92
2023-02-02T06:05:35.729Z,94.75
2023-02-02T06:08:02.074Z,94.74
2023-02-02T06:10:28.486Z,94.91
2023-02-02T06:12:54.886Z,95.03
2023-02-02T06:15:21.244Z,95.33
2023-02-02T06:17:47.586Z,95.34
2023-02-02T06:20:14.123Z,95.33
2023-02-02T06:22:40.500Z,95.43
2023-02-02T06:25:08.597Z,95.48
2023-02-02T06:27:34.956Z,95.92
2023-02-02T06:30:01.512Z,95.89
2023-02-02T06:32:30.820Z,95.80
2023-02-02T06:34:57.185Z,96.22
2023-02-02T06:37:23.622Z,96.11
2023-02-02T06:39:50.008Z,96.17
2023-02-02T06:42:21.764Z,96.19
2023-02-02T06:44:48.512Z,96.22
2023-02-02T06:47:44.874Z,96.64
2023-02-02T06:50:11.729Z,96.71
2023-02-02T06:53:02.000Z,96.54
2023-02-02T06:55:28.434Z,96.83
2023-02-02T06:58:01.092Z,96.76
2023-02-02T07:00:38.264Z,96.45
2023-02-02T07:03:16.457Z,96.88
2023-02-02T07:05:43.085Z,96.82
2023-02-02T07:08:09.514Z,97.27
2023-02-02T07:11:14.056Z,97.14
2023-02-02T07:13:37.715Z,97.15
2023-02-02T07:16:23.564Z,96.90
2023-02-02T07:18:57.658Z,97.17
2023-02-02T07:21:29.391Z,97.01
2023-02-02T07:23:57.593Z,97.31
2023-02-02T07:26:24.083Z,96.89
2023-02-02T07:28:51.905Z,97.31
2023-02-02T07:31:23.413Z,97.36
2023-02-02T07:33:57.939Z,97.42
2023-02-02T07:36:25.106Z,97.34
2023-02-02T07:38:57.400Z,97.57
2023-02-02T07:41:24.731Z,97.63
2023-02-02T07:43:51.934Z,97.33
2023-02-02T07:46:19.310Z,97.33
2023-02-02T07:48:45.854Z,97.14
2023-02-02T07:51:15.755Z,97.82
2023-02-02T07:53:47.278Z,97.54
2023-02-02T07:56:16.200Z,97.42
2023-02-02T07:58:43.391Z,97.46
2023-02-02T08:01:11.921Z,97.24
2023-02-02T08:03:39.169Z,97.51
2023-02-02T08:06:16.181Z,97.22
2023-02-02T08:08:42.779Z,97.11
2023-02-02T08:11:11.086Z,97.00
2023-02-02T08:13:38.327Z,96.89
2023-02-02T08:16:05.771Z,96.70
2023-02-02T08:18:33.690Z,96.95
2023-02-02T08:21:01.405Z,96.90
2023-02-02T08:23:28.395Z,96.72
2023-02-02T08:26:04.733Z,96.50
2023-02-02T08:28:32.328Z,96.72
2023-02-02T08:31:04.577Z,96.75
2023-02-02T08:33:30.937Z,96.50
2023-02-02T08:35:57.349Z,96.73
2023-02-02T08:38:25.108Z,96.52
2023-02-02T08:40:51.454Z,96.18
2023-02-02T08:43:17.852Z,96.04
2023-02-02T08:46:01.532Z,95.97
2023-02-02T08:48:30.846Z,95.78
2023-02-02T08:50:59.162Z,95.92
2023-02-02T08:53:26.087Z,95.63
2023-02-02T08:56:20.088Z,95.78
2023-02-02T08:58:49.243Z,95.19
2023-02-02T09:01:18.120Z,95.43
2023-02-02T09:03:45.282Z,95.63
2023-02-02T09:06:17.180Z,95.49
2023-02-02T09:08:44.272Z,95.46
2023-02-02T09:11:16.493Z,95.71
2023-02-02T09:13:47.503Z,95.17
2023-02-02T09:16:16.307Z,94.94
2023-02-02T09:18:44.146Z,94.71
2023-02-02T09:21:14.000Z,94.92
2023-02-02T09:23:42.003Z,94.92
2023-02-02T09:26:20.135Z,94.35
2023-02-02T09:28:49.319Z,94.61
2023-02-02T09:31:16.520Z,94.92
2023-02-02T09:33:43.756Z,94.19
2023-02-02T09:36:17.441Z,94.54
2023-02-02T09:38:44.344Z,94.34
2023-02-02T09:41:19.545Z,94.09
2023-02-02T09:44:10.643Z,93.90
2023-02-02T09:46:46.071Z,93.77
2023-02-02T09:49:21.174Z,94.27
2023-02-02T09:51:56.745Z,93.73
2023-02-02T09:54:33.093Z,93.42
2023-02-02T09:57:02.963Z,93.91
2023-02-02T09:59:39.537Z,94.11
2023-02-02T10:02:17.128Z,93.77
2023-02-02T10:04:49.014Z,93.89
2023-02-02T10:07:45.593Z,94.39
2023-02-02T10:10:20.974Z,94.24
2023-02-02T10:12:59.283Z,94.05
2023-02-02T10:15:39.840Z,94.10
2023-02-02T10:18:35.258Z,94.12
2023-02-02T10:21:12.542Z,94.11
2023-02-02T10:23:40.819Z,94.33
2023-02-02T10:26:16.197Z,93.70
2023-02-02T10:28:44.612Z,94.15
2023-02-02T10:31:29.848Z,93.88
2023-02-02T10:34:09.680Z,93.74
2023-02-02T10:36:59.865Z,94.09
2023-02-02T10:39:39.186Z,93.87
2023-02-02T10:42:19.414Z,93.73
2023-02-02T10:44:52.968Z,94.14
2023-02-02T10:47:45.758Z,93.97
2023-02-02T10:50:12.136Z,94.50
2023-02-02T10:52:41.972Z,94.38
2023-02-02T10:55:14.295Z,94.51
2023-02-02T10:58:08.409Z,94.64
2023-02-02T11:00:55.138Z,94.63
2023-02-02T11:03:31.089Z,94.42
2023-02-02T11:06:19.796Z,94.64
2023-02-02T11:08:52.671Z,94.49
2023-02-02T11:11:24.796Z,94.60
2023-02-02T11:13:58.174Z,94.09
2023-02-02T11:16:41.437Z,93.96
2023-02-02T11:19:23.545Z,93.72
2023-02-02T11:21:56.364Z,93.88
2023-02-02T11:24:30.184Z,93.53
2023-02-02T11:27:01.592Z,93.75
2023-02-02T11:29:30.970Z,93.32
2023-02-02T11:31:58.122Z,93.42
2023-02-02T11:34:27.435Z,93.33
2023-02-02T11:37:01.204Z,93.13
2023-02-02T11:39:27.979Z,93.24
2023-02-02T11:42:05.515Z,93.27
2023-02-02T11:44:32.758Z,93.43
2023-02-02T11:47:01.556Z,93.36
2023-02-02T11:49:28.559Z,92.98
2023-02-02T11:52:00.276Z,93.50
2023-02-02T11:54:33.349Z,92.72
2023-02-02T11:57:02.875Z,92.70
2023-02-02T11:59:44.056Z,92.40
2023-02-02T12:02:19.746Z,92.25
2023-02-02T12:04:52.405Z,92.45
2023-02-02T12:07:28.562Z,92.23
2023-02-02T12:10:01.540Z,92.57
2023-02-02T12:12:55.619Z,92.17
2023-02-02T12:15:46.701Z,91.72
2023-02-02T12:18:38.839Z,92.26
2023-02-02T12:21:07.569Z,92.03
2023-02-02T12:23:46.588Z,91.95
2023-02-02T12:26:22.459Z,92.10
2023-02-02T12:29:13.854Z,92.14
2023-02-02T12:31:46.398Z,91.78
2023-02-02T12:34:12.777Z,92.19
2023-02-02T12:36:55.427Z,92.34
2023-02-02T12:39:22.306Z,91.85
2023-02-02T12:42:10.717Z,92.28
2023-02-02T12:45:08.426Z,91.93
2023-02-02T12:47:57.172Z,91.61
2023-02-02T12:50:35.197Z,91.76
2023-02-02T12:53:32.290Z,91.63
2023-02-02T12:56:20.865Z,91.62
2023-02-02T12:59:05.009Z,92.28
2023-02-02T13:01:53.064Z,92.34
2023-02-02T13:04:53.593Z,92.63
2023-02-02T13:07:31.842Z,92.48
2023-02-02T13:10:22.617Z,92.44
2023-02-02T13:12:56.713Z,92.85
2023-02-02T13:15:29.137Z,93.35
2023-02-02T13:18:01.925Z,93.59
2023-02-02T13:20:37.987Z,93.62
2023-02-02T13:23:13.196Z,93.61
2023-02-02T13:25:48.401Z,94.18
2023-02-02T13:28:40.198Z,94.18
2023-02-02T13:31:16.592Z,94.90
2023-02-02T13:33:45.817Z,94.86
2023-02-02T13:36:25.766Z,94.71
2023-02-02T13:38:57.633Z,95.08
2023-02-02T13:41:25.245Z,95.63
2023-02-02T13:44:15.963Z,95.96
2023-02-02T13:46:57.712Z,95.89
2023-02-02T13:49:40.212Z,96.01
2023-02-02T13:52:25.701Z,95.84
2023-02-02T13:55:30.284Z,96.03
2023-02-02T13:58:28.778Z,96.43
2023-02-02T14:01:01.854Z,96.99
2023-02-02T14:03:39.666Z,96.69
2023-02-02T14:06:48.717Z,96.48
2023-02-02T14:09:18.814Z,96.74
2023-02-02T14:11:56.434Z,97.17
2023-02-02T14:14:32.893Z,96.82
2023-02-02T14:17:19.224Z,97.17
2023-02-02T14:20:06.619Z,97.35
2023-02-02T14:22:48.650Z,97.21
2023-02-02T14:25:33.243Z,97.54
2023-02-02T14:28:02.726Z,97.68
2023-02-02T14:30:34.848Z,98.05
2023-02-02T14:33:25.009Z,97.57
2023-02-02T14:35:52.740Z,97.62
2023-02-02T14:38:37.415Z,97.59
2023-02-02T14:41:39.112Z,98.03
2023-02-02T14:44:06.343Z,97.88
2023-02-02T14:46:36.218Z,97.79
2023-02-02T14:49:02.551Z,97.76
2023-02-02T14:51:32.867Z,97.91
2023-02-02T14:54:08.497Z,98.03
2023-02-02T14:56:39.678Z,98.41
2023-02-02T14:59:07.666Z,97.93
2023-02-02T15:01:38.852Z,98.66
2023-02-02T15:04:21.018Z,98.07
2023-02-02T15:06:49.000Z,98.45
2023-02-02T15:09:26.679Z,98.49
2023-02-02T15:12:00.878Z,98.59
2023-02-02T15:15:05.235Z,98.56
2023-02-02T15:17:41.737Z,98.54
2023-02-02T15:20:25.439Z,98.63
2023-02-02T15:23:06.876Z,98.54
2023-02-02T15:25:54.446Z,98.46
2023-02-02T15:28:45.614Z,98.36
2023-02-02T15:31:46.532Z,98.64
2023-02-02T15:34:24.950Z,98.62
2023-02-02T15:36:58.503Z,98.87
2023-02-02T15:39:41.159Z,98.67
2023-02-02T15:42:36.869Z,98.84
2023-02-02T15:45:04.434Z,98.89
2023-02-02T15:47:36.190Z,98.53
2023-02-02T15:50:15.461Z,98.62
2023-02-02T15:52:48.609Z,98.96
2023-02-02T15:55:24.417Z,99.07
2023-02-02T15:57:54.287Z,99.09
2023-02-02T16:00:26.470Z,98.60
2023-02-02T16:03:00.075Z,98.66
2023-02-02T16:05:29.227Z,98.58
2023-02-02T16:08:05.588Z,99.22
2023-02-02T16:10:34.056Z,98.85
2023-02-02T16:13:00.455Z,98.85
2023-02-02T16:15:28.891Z,99.09
2023-02-02T16:18:00.652Z,98.75
2023-02-02T16:20:33.044Z,98.87
2023-02-02T16:23:04.235Z,99.07
2023-02-02T16:25:34.452Z,99.15
2023-02-02T16:28:01.443Z,99.11
2023-02-02T16:30:29.187Z,99.13
2023-02-02T16:32:55.772Z,98.69
2023-02-02T16:35:38.962Z,98.95
2023-02-02T16:38:32.602Z,99.12
2023-02-02T16:41:08.402Z,98.64
2023-02-02T16:43:37.999Z,98.59
2023-02-02T16:46:04.594Z,98.82
2023-02-02T16:48:35.640Z,98.67
2023-02-02T16:51:17.593Z,98.83
2023-02-02T16:54:17.538Z,98.24
2023-02-02T16:56:47.627Z,98.83
2023-02-02T16:59:22.083Z,98.78
2023-02-02T17:01:52.086Z,98.33
2023-02-02T17:04:25.713Z,98.85
2023-02-02T17:06:54.003Z,98.59
2023-02-02T17:09:37.297Z,98.40
2023-02-02T17:12:33.220Z,98.70
2023-02-02T17:15:16.969Z,98.34
2023-02-02T17:17:44.547Z,98.71
2023-02-02T17:20:12.523Z,98.43
2023-02-02T17:22:41.960Z,98.41
2023-02-02T17:25:16.955Z,98.68
2023-02-02T17:27:45.149Z,98.71
2023-02-02T17:30:17.485Z,98.31
2023-02-02T17:32:43.986Z,98.49
2023-02-02T17:35:23.102Z,98.71
2023-02-02T17:37:52.254Z,98.42
2023-02-02T17:40:21.114Z,98.51
2023-02-02T17:42:50.751Z,98.42
2023-02-02T17:45:23.022Z,98.00
2023-02-02T17:47:57.653Z,98.20
2023-02-02T17:50:24.559Z,98.39
2023-02-02T17:52:51.325Z,97.92
2023-02-02T17:55:33.017Z,98.43
2023-02-02T17:58:03.899Z,98.20
2023-02-02T18:00:31.647Z,98.15
2023-02-02T18:03:23.345Z,98.63
2023-02-02T18:05:59.520Z,98.19
2023-02-02T18:08:26.045Z,98.26
2023-02-02T18:10:53.697Z,98.24
2023-02-02T18:13:25.783Z,98.14
2023-02-02T18:15:53.134Z,98.40
2023-02-02T18:18:20.721Z,97.96
2023-02-02T18:20:49.516Z,98.06
2023-02-02T18:23:18.613Z,98.38
2023-02-02T18:25:52.800Z,98.31
2023-02-02T18:28:21.253Z,98.09
2023-02-02T18:30:47.698Z,98.09
2023-02-02T18:33:17.762Z,98.39
2023-02-02T18:35:45.898Z,98.39
2023-02-02T18:38:14.728Z,98.05
2023-02-02T18:40:43.228Z,98.46
2023-02-02T18:43:11.651Z,98.36
2023-02-02T18:45:38.025Z,98.48
2023-02-02T18:48:04.543Z,98.34
2023-02-02T18:50:30.880Z,98.61
2023-02-02T18:52:57.233Z,98.45
2023-02-02T18:55:23.886Z,98.48
2023-02-02T18:57:50.402Z,98.29
2023-02-02T19:00:17.096Z,98.41
2023-02-02T19:02:43.477Z,98.12
2023-02-02T19:06:08.637Z,98.14
2023-02-02T19:08:34.999Z,98.25
2023-02-02T19:11:18.165Z,98.21
2023-02-02T19:13:45.313Z,98.20
2023-02-02T19:16:23.770Z,98.25
2023-02-02T20:50:31.192Z,98.76
2023-02-02T20:52:59.668Z,98.71
2023-02-02T20:55:28.394Z,98.49
2023-02-02T20:57:54.908Z,98.61
2023-02-02T21:00:23.840Z,98.44
2023-02-02T21:02:52.042Z,98.71
2023-02-02T21:05:18.395Z,98.98
2023-02-02T21:07:44.753Z,98.88
2023-02-02T21:10:11.266Z,98.67
2023-02-02T21:12:37.619Z,98.53
2023-02-02T21:15:04.150Z,98.54
2023-02-02T21:17:30.564Z,98.73
2023-02-02T21:19:56.899Z,98.43
2023-02-02T21:22:23.299Z,98.46
2023-02-02T21:24:49.656Z,98.31
2023-02-02T21:27:16.180Z,98.30
2023-02-02T21:29:42.600Z,97.86
2023-02-02T21:32:12.072Z,97.99
2023-02-02T21:34:45.780Z,97.62
2023-02-02T21:37:28.361Z,97.94
2023-02-02T21:39:59.496Z,98.11
2023-02-02T21:42:39.279Z,97.89
2023-02-02T21:45:35.696Z,97.84
2023-02-02T21:48:07.099Z,97.72
2023-02-02T21:50:44.973Z,97.43
2023-02-02T21:53:24.050Z,97.28
2023-02-02T21:55:52.332Z,97.92
2023-02-02T21:58:22.241Z,97.68
2023-02-02T22:00:58.414Z,97.58
2023-02-02T22:03:29.534Z,97.26
2023-02-02T22:06:22.120Z,97.27
2023-02-02T22:08:49.175Z,97.13
2023-02-02T22:11:33.507Z,97.27
2023-02-02T22:14:51.708Z,97.17
2023-02-02T22:17:54.132Z,96.74
2023-02-02T22:20:34.580Z,96.93
2023-02-02T22:23:17.168Z,96.44
2023-02-02T22:25:45.232Z,96.50
2023-02-02T22:28:36.909Z,96.47
2023-02-02T22:31:04.919Z,96.63
2023-02-02T22:33:47.063Z,96.64
2023-02-02T22:36:14.401Z,96.36
2023-02-02T22:38:40.745Z,96.21
2023-02-02T22:41:08.911Z,96.29
2023-02-02T22:43:35.277Z,96.52
2023-02-02T22:46:01.817Z,96.23
2023-02-02T22:48:28.269Z,95.80
2023-02-02T22:50:54.728Z,95.96
2023-02-02T22:53:24.267Z,96.16
2023-02-02T22:56:03.033Z,95.88
2023-02-02T22:58:40.289Z,95.95
2023-02-02T23:01:07.678Z,95.76
2023-02-02T23:03:41.308Z,95.72
2023-02-02T23:06:07.869Z,95.86
2023-02-02T23:08:34.629Z,95.56
2023-02-02T23:11:01.385Z,95.97
2023-02-02T23:13:31.853Z,95.62
2023-02-02T23:15:58.280Z,95.61
2023-02-02T23:18:31.979Z,95.38
2023-02-02T23:21:07.645Z,95.88
2023-02-02T23:23:38.090Z,95.68
2023-02-02T23:26:19.939Z,95.79
2023-02-02T23:28:47.474Z,95.40
2023-02-02T23:31:14.073Z,95.61
2023-02-02T23:33:58.966Z,95.51
2023-02-02T23:36:25.395Z,95.60
2023-02-02T23:39:05.128Z,95.37
2023-02-02T23:41:40.801Z,95.01
2023-02-02T23:44:07.338Z,95.47
2023-02-02T23:46:33.872Z,95.47
2023-02-02T23:49:00.715Z,95.18
2023-02-02T23:51:27.308Z,95.14
2023-02-02T23:53:55.598Z,95.28
2023-02-02T23:56:22.431Z,95.59
2023-02-02T23:59:04.362Z,95.54
